sensor_id;sensor_type;location;lat;lon;timestamp;P1;durP1;ratioP1;P2;durP2;ratioP2
61391;SDS011;47261;52.892;5.738;2022-11-15T00:01:50;19.47;;;8.93;;
61391;SDS011;47261;52.892;5.738;2022-11-15T00:04:15;27.40;;;11.52;;
61391;SDS011;47261;52.892;5.738;2022-11-15T00:06:41;26.43;;;12.30;;
61391;SDS011;47261;52.892;5.738;2022-11-15T00:09:07;30.13;;;13.30;;
61391;SDS011;47261;52.892;5.738;2022-11-15T00:11:33;15.70;;;8.25;;
61391;SDS011;47261;52.892;5.738;2022-11-15T00:13:58;16.27;;;6.60;;
61391;SDS011;47261;52.892;5.738;2022-11-15T00:16:27;22.35;;;9.35;;
61391;SDS011;47261;52.892;5.738;2022-11-15T00:18:53;29.67;;;12.93;;
61391;SDS011;47261;52.892;5.738;2022-11-15T00:21:18;26.20;;;11.35;;
61391;SDS011;47261;52.892;5.738;2022-11-15T00:23:44;19.73;;;10.00;;
61391;SDS011;47261;52.892;5.738;2022-11-15T00:26:14;19.98;;;9.18;;
61391;SDS011;47261;52.892;5.738;2022-11-15T00:28:40;19.77;;;9.00;;
61391;SDS011;47261;52.892;5.738;2022-11-15T00:31:07;22.67;;;8.27;;
61391;SDS011;47261;52.892;5.738;2022-11-15T00:33:35;27.02;;;13.50;;
61391;SDS011;47261;52.892;5.738;2022-11-15T00:36:05;32.63;;;14.17;;
61391;SDS011;47261;52.892;5.738;2022-11-15T00:38:34;26.23;;;10.73;;
61391;SDS011;47261;52.892;5.738;2022-11-15T00:41:01;32.10;;;12.85;;
61391;SDS011;47261;52.892;5.738;2022-11-15T00:43:28;23.15;;;10.88;;
61391;SDS011;47261;52.892;5.738;2022-11-15T00:45:54;32.90;;;13.80;;
61391;SDS011;47261;52.892;5.738;2022-11-15T00:48:19;32.25;;;12.75;;
61391;SDS011;47261;52.892;5.738;2022-11-15T00:50:45;31.67;;;12.47;;
61391;SDS011;47261;52.892;5.738;2022-11-15T00:53:11;26.77;;;11.82;;
61391;SDS011;47261;52.892;5.738;2022-11-15T00:55:36;21.20;;;9.50;;
61391;SDS011;47261;52.892;5.738;2022-11-15T00:58:02;26.30;;;9.40;;
61391;SDS011;47261;52.892;5.738;2022-11-15T01:00:28;19.23;;;8.20;;
61391;SDS011;47261;52.892;5.738;2022-11-15T01:02:53;18.60;;;8.00;;
61391;SDS011;47261;52.892;5.738;2022-11-15T01:05:19;18.40;;;7.10;;
61391;SDS011;47261;52.892;5.738;2022-11-15T01:07:44;20.13;;;9.90;;
61391;SDS011;47261;52.892;5.738;2022-11-15T01:10:10;39.75;;;14.98;;
61391;SDS011;47261;52.892;5.738;2022-11-15T01:12:36;24.73;;;10.00;;
61391;SDS011;47261;52.892;5.738;2022-11-15T01:15:01;26.60;;;10.07;;
61391;SDS011;47261;52.892;5.738;2022-11-15T01:17:28;22.60;;;9.60;;
61391;SDS011;47261;52.892;5.738;2022-11-15T01:19:55;25.60;;;10.25;;
61391;SDS011;47261;52.892;5.738;2022-11-15T01:22:21;36.50;;;14.60;;
61391;SDS011;47261;52.892;5.738;2022-11-15T01:24:46;37.97;;;15.63;;
61391;SDS011;47261;52.892;5.738;2022-11-15T01:27:13;40.47;;;16.00;;
61391;SDS011;47261;52.892;5.738;2022-11-15T01:29:39;34.33;;;13.47;;
61391;SDS011;47261;52.892;5.738;2022-11-15T01:32:05;36.70;;;14.80;;
61391;SDS011;47261;52.892;5.738;2022-11-15T01:34:30;36.38;;;15.10;;
61391;SDS011;47261;52.892;5.738;2022-11-15T01:36:56;36.03;;;14.87;;
61391;SDS011;47261;52.892;5.738;2022-11-15T01:39:21;42.50;;;15.73;;
61391;SDS011;47261;52.892;5.738;2022-11-15T01:41:47;40.00;;;14.20;;
61391;SDS011;47261;52.892;5.738;2022-11-15T01:47:05;36.15;;;13.45;;
61391;SDS011;47261;52.892;5.738;2022-11-15T01:50:06;34.50;;;13.32;;
61391;SDS011;47261;52.892;5.738;2022-11-15T01:52:33;34.53;;;14.93;;
61391;SDS011;47261;52.892;5.738;2022-11-15T01:55:05;39.00;;;16.05;;
61391;SDS011;47261;52.892;5.738;2022-11-15T01:57:38;40.97;;;16.37;;
61391;SDS011;47261;52.892;5.738;2022-11-15T02:00:07;42.00;;;17.08;;
61391;SDS011;47261;52.892;5.738;2022-11-15T02:02:33;42.67;;;17.23;;
61391;SDS011;47261;52.892;5.738;2022-11-15T02:05:01;36.42;;;14.68;;
61391;SDS011;47261;52.892;5.738;2022-11-15T02:07:26;41.27;;;16.57;;
61391;SDS011;47261;52.892;5.738;2022-11-15T02:09:54;47.33;;;17.45;;
61391;SDS011;47261;52.892;5.738;2022-11-15T02:12:21;45.90;;;16.85;;
61391;SDS011;47261;52.892;5.738;2022-11-15T02:14:48;31.40;;;11.37;;
61391;SDS011;47261;52.892;5.738;2022-11-15T02:20:15;42.58;;;17.05;;
61391;SDS011;47261;52.892;5.738;2022-11-15T02:23:04;54.10;;;17.95;;
61391;SDS011;47261;52.892;5.738;2022-11-15T02:39:35;64.53;;;19.83;;
61391;SDS011;47261;52.892;5.738;2022-11-15T02:42:25;43.67;;;13.87;;
61391;SDS011;47261;52.892;5.738;2022-11-15T02:45:13;39.40;;;13.57;;
61391;SDS011;47261;52.892;5.738;2022-11-15T02:47:52;41.63;;;14.02;;
61391;SDS011;47261;52.892;5.738;2022-11-15T02:50:21;41.53;;;13.50;;
61391;SDS011;47261;52.892;5.738;2022-11-15T02:52:49;45.75;;;15.00;;
61391;SDS011;47261;52.892;5.738;2022-11-15T02:55:35;58.03;;;18.07;;
61391;SDS011;47261;52.892;5.738;2022-11-15T03:06:37;69.03;;;19.50;;
61391;SDS011;47261;52.892;5.738;2022-11-15T03:09:18;77.40;;;19.07;;
61391;SDS011;47261;52.892;5.738;2022-11-15T03:11:57;75.13;;;18.40;;
61391;SDS011;47261;52.892;5.738;2022-11-15T03:14:40;56.45;;;16.83;;
61391;SDS011;47261;52.892;5.738;2022-11-15T03:17:28;73.57;;;17.90;;
61391;SDS011;47261;52.892;5.738;2022-11-15T03:20:00;69.88;;;19.55;;
61391;SDS011;47261;52.892;5.738;2022-11-15T03:22:29;70.23;;;18.43;;
61391;SDS011;47261;52.892;5.738;2022-11-15T03:25:02;63.65;;;17.90;;
61391;SDS011;47261;52.892;5.738;2022-11-15T03:27:33;66.00;;;17.88;;
61391;SDS011;47261;52.892;5.738;2022-11-15T03:30:04;72.35;;;19.25;;
61391;SDS011;47261;52.892;5.738;2022-11-15T03:32:34;65.07;;;16.90;;
61391;SDS011;47261;52.892;5.738;2022-11-15T03:40:09;60.22;;;15.45;;
61391;SDS011;47261;52.892;5.738;2022-11-15T03:42:42;65.60;;;17.08;;
61391;SDS011;47261;52.892;5.738;2022-11-15T03:45:23;67.65;;;17.25;;
61391;SDS011;47261;52.892;5.738;2022-11-15T03:48:01;64.67;;;17.00;;
61391;SDS011;47261;52.892;5.738;2022-11-15T03:50:32;51.42;;;14.77;;
61391;SDS011;47261;52.892;5.738;2022-11-15T03:52:58;65.78;;;17.80;;
61391;SDS011;47261;52.892;5.738;2022-11-15T03:55:24;64.07;;;16.98;;
61391;SDS011;47261;52.892;5.738;2022-11-15T03:57:50;66.87;;;16.77;;
61391;SDS011;47261;52.892;5.738;2022-11-15T04:00:19;62.58;;;17.05;;
61391;SDS011;47261;52.892;5.738;2022-11-15T04:02:45;79.87;;;18.37;;
61391;SDS011;47261;52.892;5.738;2022-11-15T04:05:10;77.70;;;18.42;;
61391;SDS011;47261;52.892;5.738;2022-11-15T04:07:36;75.53;;;16.57;;
61391;SDS011;47261;52.892;5.738;2022-11-15T04:10:02;71.93;;;18.37;;
61391;SDS011;47261;52.892;5.738;2022-11-15T04:12:29;65.33;;;16.80;;
61391;SDS011;47261;52.892;5.738;2022-11-15T04:15:06;74.28;;;19.00;;
61391;SDS011;47261;52.892;5.738;2022-11-15T04:17:37;59.28;;;16.92;;
61391;SDS011;47261;52.892;5.738;2022-11-15T04:20:05;62.17;;;17.85;;
61391;SDS011;47261;52.892;5.738;2022-11-15T04:22:54;83.38;;;18.42;;
61391;SDS011;47261;52.892;5.738;2022-11-15T04:25:39;62.60;;;16.17;;
61391;SDS011;47261;52.892;5.738;2022-11-15T04:28:06;57.22;;;13.77;;
61391;SDS011;47261;52.892;5.738;2022-11-15T04:30:31;78.93;;;18.08;;
61391;SDS011;47261;52.892;5.738;2022-11-15T04:32:57;79.53;;;18.00;;
61391;SDS011;47261;52.892;5.738;2022-11-15T04:35:23;67.37;;;16.13;;
61391;SDS011;47261;52.892;5.738;2022-11-15T04:37:48;83.10;;;17.52;;
61391;SDS011;47261;52.892;5.738;2022-11-15T04:40:14;101.37;;;19.57;;
61391;SDS011;47261;52.892;5.738;2022-11-15T04:42:40;90.65;;;18.05;;
61391;SDS011;47261;52.892;5.738;2022-11-15T04:45:07;105.78;;;20.52;;
61391;SDS011;47261;52.892;5.738;2022-11-15T04:47:34;107.07;;;20.63;;
61391;SDS011;47261;52.892;5.738;2022-11-15T04:49:59;111.40;;;20.20;;
61391;SDS011;47261;52.892;5.738;2022-11-15T04:52:25;95.60;;;20.03;;
61391;SDS011;47261;52.892;5.738;2022-11-15T04:54:50;99.95;;;19.02;;
61391;SDS011;47261;52.892;5.738;2022-11-15T04:57:16;87.20;;;20.60;;
61391;SDS011;47261;52.892;5.738;2022-11-15T04:59:41;104.18;;;19.35;;
61391;SDS011;47261;52.892;5.738;2022-11-15T05:02:07;69.60;;;17.17;;
61391;SDS011;47261;52.892;5.738;2022-11-15T05:04:33;100.63;;;20.87;;
61391;SDS011;47261;52.892;5.738;2022-11-15T05:06:58;84.55;;;18.52;;
61391;SDS011;47261;52.892;5.738;2022-11-15T05:09:24;75.03;;;18.90;;
61391;SDS011;47261;52.892;5.738;2022-11-15T05:11:49;87.15;;;18.85;;
61391;SDS011;47261;52.892;5.738;2022-11-15T05:14:15;112.13;;;19.77;;
61391;SDS011;47261;52.892;5.738;2022-11-15T05:16:41;86.43;;;19.88;;
61391;SDS011;47261;52.892;5.738;2022-11-15T05:19:07;98.35;;;21.83;;
61391;SDS011;47261;52.892;5.738;2022-11-15T05:21:34;102.57;;;19.10;;
61391;SDS011;47261;52.892;5.738;2022-11-15T05:24:00;91.10;;;20.63;;
61391;SDS011;47261;52.892;5.738;2022-11-15T05:26:26;73.47;;;18.45;;
61391;SDS011;47261;52.892;5.738;2022-11-15T05:28:56;91.30;;;20.20;;
61391;SDS011;47261;52.892;5.738;2022-11-15T05:31:23;55.13;;;14.48;;
61391;SDS011;47261;52.892;5.738;2022-11-15T05:33:49;81.88;;;20.80;;
61391;SDS011;47261;52.892;5.738;2022-11-15T05:39:06;68.97;;;17.95;;
61391;SDS011;47261;52.892;5.738;2022-11-15T05:41:33;77.03;;;18.65;;
61391;SDS011;47261;52.892;5.738;2022-11-15T05:44:02;70.07;;;18.13;;
61391;SDS011;47261;52.892;5.738;2022-11-15T05:46:30;81.47;;;20.50;;
61391;SDS011;47261;52.892;5.738;2022-11-15T05:48:59;91.67;;;20.17;;
61391;SDS011;47261;52.892;5.738;2022-11-15T05:51:25;95.50;;;20.23;;
61391;SDS011;47261;52.892;5.738;2022-11-15T05:53:54;61.30;;;16.75;;
61391;SDS011;47261;52.892;5.738;2022-11-15T05:56:22;67.07;;;19.38;;
61391;SDS011;47261;52.892;5.738;2022-11-15T05:58:47;76.37;;;20.67;;
61391;SDS011;47261;52.892;5.738;2022-11-15T06:01:13;88.82;;;21.65;;
61391;SDS011;47261;52.892;5.738;2022-11-15T06:03:39;89.07;;;20.33;;
61391;SDS011;47261;52.892;5.738;2022-11-15T06:06:05;88.00;;;21.33;;
61391;SDS011;47261;52.892;5.738;2022-11-15T06:08:30;103.72;;;23.42;;
61391;SDS011;47261;52.892;5.738;2022-11-15T06:10:56;81.13;;;22.73;;
61391;SDS011;47261;52.892;5.738;2022-11-15T06:13:21;76.10;;;22.37;;
61391;SDS011;47261;52.892;5.738;2022-11-15T06:15:47;101.28;;;25.70;;
61391;SDS011;47261;52.892;5.738;2022-11-15T06:18:13;73.03;;;22.07;;
61391;SDS011;47261;52.892;5.738;2022-11-15T06:20:38;31.80;;;11.20;;
61391;SDS011;47261;52.892;5.738;2022-11-15T06:23:04;50.97;;;16.70;;
61391;SDS011;47261;52.892;5.738;2022-11-15T06:25:30;57.67;;;19.42;;
61391;SDS011;47261;52.892;5.738;2022-11-15T06:27:56;42.67;;;16.87;;
61391;SDS011;47261;52.892;5.738;2022-11-15T06:30:24;70.72;;;19.65;;
61391;SDS011;47261;52.892;5.738;2022-11-15T06:32:50;69.78;;;21.88;;
61391;SDS011;47261;52.892;5.738;2022-11-15T06:35:16;50.60;;;17.98;;
61391;SDS011;47261;52.892;5.738;2022-11-15T06:37:42;56.95;;;18.00;;
61391;SDS011;47261;52.892;5.738;2022-11-15T06:40:08;60.30;;;19.60;;
61391;SDS011;47261;52.892;5.738;2022-11-15T06:42:34;45.97;;;14.45;;
61391;SDS011;47261;52.892;5.738;2022-11-15T06:45:00;48.47;;;17.53;;
61391;SDS011;47261;52.892;5.738;2022-11-15T06:47:26;47.25;;;17.48;;
61391;SDS011;47261;52.892;5.738;2022-11-15T06:49:52;49.33;;;18.90;;
61391;SDS011;47261;52.892;5.738;2022-11-15T06:52:18;29.42;;;9.85;;
61391;SDS011;47261;52.892;5.738;2022-11-15T06:54:44;51.47;;;18.50;;
61391;SDS011;47261;52.892;5.738;2022-11-15T06:57:10;47.43;;;16.30;;
61391;SDS011;47261;52.892;5.738;2022-11-15T06:59:36;35.75;;;15.27;;
61391;SDS011;47261;52.892;5.738;2022-11-15T07:02:02;61.15;;;21.63;;
61391;SDS011;47261;52.892;5.738;2022-11-15T07:04:28;50.57;;;18.03;;
61391;SDS011;47261;52.892;5.738;2022-11-15T07:06:53;48.53;;;18.90;;
61391;SDS011;47261;52.892;5.738;2022-11-15T07:09:19;38.03;;;14.03;;
61391;SDS011;47261;52.892;5.738;2022-11-15T07:11:44;45.97;;;18.37;;
61391;SDS011;47261;52.892;5.738;2022-11-15T07:14:10;42.13;;;17.67;;
61391;SDS011;47261;52.892;5.738;2022-11-15T07:16:36;35.33;;;15.30;;
61391;SDS011;47261;52.892;5.738;2022-11-15T07:19:02;31.27;;;12.32;;
61391;SDS011;47261;52.892;5.738;2022-11-15T07:21:29;26.40;;;11.50;;
61391;SDS011;47261;52.892;5.738;2022-11-15T07:23:55;37.57;;;16.93;;
61391;SDS011;47261;52.892;5.738;2022-11-15T07:26:20;35.50;;;15.20;;
61391;SDS011;47261;52.892;5.738;2022-11-15T07:28:46;53.13;;;20.93;;
61391;SDS011;47261;52.892;5.738;2022-11-15T07:31:12;45.78;;;17.08;;
61391;SDS011;47261;52.892;5.738;2022-11-15T07:33:37;49.97;;;20.73;;
61391;SDS011;47261;52.892;5.738;2022-11-15T07:36:04;40.97;;;16.63;;
61391;SDS011;47261;52.892;5.738;2022-11-15T07:38:31;55.73;;;19.83;;
61391;SDS011;47261;52.892;5.738;2022-11-15T07:40:58;57.78;;;19.88;;
61391;SDS011;47261;52.892;5.738;2022-11-15T07:43:24;40.83;;;19.10;;
61391;SDS011;47261;52.892;5.738;2022-11-15T07:45:52;31.67;;;13.13;;
61391;SDS011;47261;52.892;5.738;2022-11-15T07:48:18;45.73;;;19.23;;
61391;SDS011;47261;52.892;5.738;2022-11-15T07:50:44;28.85;;;11.07;;
61391;SDS011;47261;52.892;5.738;2022-11-15T07:53:09;42.37;;;16.00;;
61391;SDS011;47261;52.892;5.738;2022-11-15T07:55:35;39.33;;;17.30;;
61391;SDS011;47261;52.892;5.738;2022-11-15T08:00:28;39.22;;;16.50;;
61391;SDS011;47261;52.892;5.738;2022-11-15T08:03:00;47.83;;;19.60;;
61391;SDS011;47261;52.892;5.738;2022-11-15T08:05:34;42.55;;;16.95;;
61391;SDS011;47261;52.892;5.738;2022-11-15T08:08:00;39.58;;;16.40;;
61391;SDS011;47261;52.892;5.738;2022-11-15T08:10:26;42.88;;;18.38;;
61391;SDS011;47261;52.892;5.738;2022-11-15T08:13:05;53.20;;;20.17;;
61391;SDS011;47261;52.892;5.738;2022-11-15T08:15:33;50.05;;;18.63;;
61391;SDS011;47261;52.892;5.738;2022-11-15T08:18:01;49.58;;;20.05;;
61391;SDS011;47261;52.892;5.738;2022-11-15T08:20:31;40.10;;;18.13;;
61391;SDS011;47261;52.892;5.738;2022-11-15T08:23:00;47.25;;;19.77;;
61391;SDS011;47261;52.892;5.738;2022-11-15T08:25:27;31.03;;;12.80;;
61391;SDS011;47261;52.892;5.738;2022-11-15T08:27:54;45.55;;;18.58;;
61391;SDS011;47261;52.892;5.738;2022-11-15T08:30:21;45.60;;;17.92;;
61391;SDS011;47261;52.892;5.738;2022-11-15T08:32:48;49.53;;;20.73;;
61391;SDS011;47261;52.892;5.738;2022-11-15T08:35:15;42.60;;;18.25;;
61391;SDS011;47261;52.892;5.738;2022-11-15T08:37:41;38.87;;;14.30;;
61391;SDS011;47261;52.892;5.738;2022-11-15T08:40:06;53.67;;;20.90;;
61391;SDS011;47261;52.892;5.738;2022-11-15T08:42:33;46.17;;;18.67;;
61391;SDS011;47261;52.892;5.738;2022-11-15T08:44:59;43.07;;;18.23;;
61391;SDS011;47261;52.892;5.738;2022-11-15T08:47:24;46.33;;;19.08;;
61391;SDS011;47261;52.892;5.738;2022-11-15T08:49:50;34.47;;;17.30;;
61391;SDS011;47261;52.892;5.738;2022-11-15T08:52:16;43.35;;;16.10;;
61391;SDS011;47261;52.892;5.738;2022-11-15T08:54:41;37.93;;;17.80;;
61391;SDS011;47261;52.892;5.738;2022-11-15T08:57:07;35.83;;;16.80;;
61391;SDS011;47261;52.892;5.738;2022-11-15T08:59:34;43.77;;;17.93;;
61391;SDS011;47261;52.892;5.738;2022-11-15T09:02:00;39.65;;;16.65;;
61391;SDS011;47261;52.892;5.738;2022-11-15T09:04:26;38.42;;;17.20;;
61391;SDS011;47261;52.892;5.738;2022-11-15T09:06:52;44.83;;;18.43;;
61391;SDS011;47261;52.892;5.738;2022-11-15T09:09:18;43.58;;;18.52;;
61391;SDS011;47261;52.892;5.738;2022-11-15T09:11:43;43.57;;;17.57;;
61391;SDS011;47261;52.892;5.738;2022-11-15T09:14:12;45.58;;;18.55;;
61391;SDS011;47261;52.892;5.738;2022-11-15T09:16:39;44.23;;;17.97;;
61391;SDS011;47261;52.892;5.738;2022-11-15T09:19:05;50.55;;;17.38;;
61391;SDS011;47261;52.892;5.738;2022-11-15T09:21:31;42.75;;;17.50;;
61391;SDS011;47261;52.892;5.738;2022-11-15T09:23:57;40.67;;;17.27;;
61391;SDS011;47261;52.892;5.738;2022-11-15T09:26:23;36.65;;;16.38;;
61391;SDS011;47261;52.892;5.738;2022-11-15T09:28:49;38.00;;;17.77;;
61391;SDS011;47261;52.892;5.738;2022-11-15T09:31:15;39.25;;;17.20;;
61391;SDS011;47261;52.892;5.738;2022-11-15T09:33:43;37.90;;;18.47;;
61391;SDS011;47261;52.892;5.738;2022-11-15T09:36:09;36.55;;;16.73;;
61391;SDS011;47261;52.892;5.738;2022-11-15T09:38:35;40.38;;;16.02;;
61391;SDS011;47261;52.892;5.738;2022-11-15T09:46:18;29.85;;;14.57;;
61391;SDS011;47261;52.892;5.738;2022-11-15T09:48:50;35.22;;;17.00;;
61391;SDS011;47261;52.892;5.738;2022-11-15T09:56:27;33.17;;;15.20;;
61391;SDS011;47261;52.892;5.738;2022-11-15T10:01:50;27.98;;;13.07;;
61391;SDS011;47261;52.892;5.738;2022-11-15T10:04:22;29.10;;;13.83;;
61391;SDS011;47261;52.892;5.738;2022-11-15T10:06:54;24.48;;;12.32;;
61391;SDS011;47261;52.892;5.738;2022-11-15T10:09:24;25.63;;;11.48;;
61391;SDS011;47261;52.892;5.738;2022-11-15T10:11:55;32.85;;;15.77;;
61391;SDS011;47261;52.892;5.738;2022-11-15T10:14:22;35.92;;;15.07;;
61391;SDS011;47261;52.892;5.738;2022-11-15T10:16:59;32.83;;;13.93;;
61391;SDS011;47261;52.892;5.738;2022-11-15T10:27:28;23.27;;;10.57;;
61391;SDS011;47261;52.892;5.738;2022-11-15T10:29:54;26.73;;;12.20;;
61391;SDS011;47261;52.892;5.738;2022-11-15T10:32:20;31.92;;;12.43;;
61391;SDS011;47261;52.892;5.738;2022-11-15T10:34:47;25.35;;;13.15;;
61391;SDS011;47261;52.892;5.738;2022-11-15T10:37:14;27.63;;;12.57;;
61391;SDS011;47261;52.892;5.738;2022-11-15T10:40:05;24.10;;;11.10;;
61391;SDS011;47261;52.892;5.738;2022-11-15T10:42:40;25.63;;;12.07;;
61391;SDS011;47261;52.892;5.738;2022-11-15T10:47:51;28.57;;;12.80;;
61391;SDS011;47261;52.892;5.738;2022-11-15T10:50:27;23.60;;;12.50;;
61391;SDS011;47261;52.892;5.738;2022-11-15T10:52:54;27.67;;;11.82;;
61391;SDS011;47261;52.892;5.738;2022-11-15T10:55:22;29.93;;;13.10;;
61391;SDS011;47261;52.892;5.738;2022-11-15T10:57:53;25.77;;;11.60;;
61391;SDS011;47261;52.892;5.738;2022-11-15T11:05:31;15.80;;;7.45;;
61391;SDS011;47261;52.892;5.738;2022-11-15T11:10:36;15.60;;;7.47;;
61391;SDS011;47261;52.892;5.738;2022-11-15T11:13:19;20.57;;;9.90;;
61391;SDS011;47261;52.892;5.738;2022-11-15T11:15:46;25.30;;;9.75;;
61391;SDS011;47261;52.892;5.738;2022-11-15T11:18:25;25.20;;;11.00;;
61391;SDS011;47261;52.892;5.738;2022-11-15T11:20:58;11.17;;;5.07;;
61391;SDS011;47261;52.892;5.738;2022-11-15T11:26:35;23.55;;;7.15;;
61391;SDS011;47261;52.892;5.738;2022-11-15T11:35:13;8.80;;;4.30;;
61391;SDS011;47261;52.892;5.738;2022-11-15T11:43:56;12.63;;;4.90;;
61391;SDS011;47261;52.892;5.738;2022-11-15T11:54:59;8.27;;;2.83;;
61391;SDS011;47261;52.892;5.738;2022-11-15T12:00:24;8.43;;;3.17;;
61391;SDS011;47261;52.892;5.738;2022-11-15T12:06:02;7.85;;;2.45;;
61391;SDS011;47261;52.892;5.738;2022-11-15T12:08:43;7.22;;;2.80;;
61391;SDS011;47261;52.892;5.738;2022-11-15T12:14:16;6.03;;;1.60;;
61391;SDS011;47261;52.892;5.738;2022-11-15T12:17:28;4.87;;;1.83;;
61391;SDS011;47261;52.892;5.738;2022-11-15T12:19:58;8.27;;;1.95;;
61391;SDS011;47261;52.892;5.738;2022-11-15T12:25:05;4.78;;;1.73;;
61391;SDS011;47261;52.892;5.738;2022-11-15T12:27:41;9.65;;;1.83;;
61391;SDS011;47261;52.892;5.738;2022-11-15T12:30:12;5.20;;;1.57;;
61391;SDS011;47261;52.892;5.738;2022-11-15T12:32:49;3.63;;;1.33;;
61391;SDS011;47261;52.892;5.738;2022-11-15T12:38:00;3.63;;;0.90;;
61391;SDS011;47261;52.892;5.738;2022-11-15T12:40:29;5.33;;;1.33;;
61391;SDS011;47261;52.892;5.738;2022-11-15T12:42:58;5.00;;;1.25;;
61391;SDS011;47261;52.892;5.738;2022-11-15T12:45:43;5.80;;;1.48;;
61391;SDS011;47261;52.892;5.738;2022-11-15T13:01:09;4.60;;;1.42;;
61391;SDS011;47261;52.892;5.738;2022-11-15T13:03:35;9.70;;;2.83;;
61391;SDS011;47261;52.892;5.738;2022-11-15T13:06:36;5.87;;;2.10;;
61391;SDS011;47261;52.892;5.738;2022-11-15T13:14:51;3.53;;;1.48;;
61391;SDS011;47261;52.892;5.738;2022-11-15T13:19:53;4.70;;;1.20;;
61391;SDS011;47261;52.892;5.738;2022-11-15T13:22:24;2.72;;;1.00;;
61391;SDS011;47261;52.892;5.738;2022-11-15T13:25:15;5.57;;;1.27;;
61391;SDS011;47261;52.892;5.738;2022-11-15T13:28:00;4.43;;;1.25;;
61391;SDS011;47261;52.892;5.738;2022-11-15T13:30:27;5.80;;;1.30;;
61391;SDS011;47261;52.892;5.738;2022-11-15T13:32:55;5.27;;;1.60;;
61391;SDS011;47261;52.892;5.738;2022-11-15T13:35:25;6.97;;;2.10;;
61391;SDS011;47261;52.892;5.738;2022-11-15T13:37:53;4.32;;;1.70;;
61391;SDS011;47261;52.892;5.738;2022-11-15T13:42:55;5.45;;;1.73;;
61391;SDS011;47261;52.892;5.738;2022-11-15T13:45:22;3.83;;;1.33;;
61391;SDS011;47261;52.892;5.738;2022-11-15T13:47:53;7.10;;;1.80;;
61391;SDS011;47261;52.892;5.738;2022-11-15T13:50:21;8.10;;;2.10;;
61391;SDS011;47261;52.892;5.738;2022-11-15T13:52:53;7.38;;;1.95;;
61391;SDS011;47261;52.892;5.738;2022-11-15T13:55:23;6.25;;;1.58;;
61391;SDS011;47261;52.892;5.738;2022-11-15T13:57:51;5.17;;;1.27;;
61391;SDS011;47261;52.892;5.738;2022-11-15T14:00:32;5.35;;;1.50;;
61391;SDS011;47261;52.892;5.738;2022-11-15T14:05:44;4.53;;;1.05;;
61391;SDS011;47261;52.892;5.738;2022-11-15T14:08:26;11.15;;;1.55;;
61391;SDS011;47261;52.892;5.738;2022-11-15T14:13:34;6.82;;;2.63;;
61391;SDS011;47261;52.892;5.738;2022-11-15T14:19:00;4.30;;;1.50;;
61391;SDS011;47261;52.892;5.738;2022-11-15T14:21:27;4.50;;;1.33;;
61391;SDS011;47261;52.892;5.738;2022-11-15T14:23:55;5.07;;;1.20;;
61391;SDS011;47261;52.892;5.738;2022-11-15T14:26:39;4.25;;;1.42;;
61391;SDS011;47261;52.892;5.738;2022-11-15T14:29:22;5.10;;;1.60;;
61391;SDS011;47261;52.892;5.738;2022-11-15T14:31:51;5.23;;;1.20;;
61391;SDS011;47261;52.892;5.738;2022-11-15T14:34:17;3.95;;;1.08;;
61391;SDS011;47261;52.892;5.738;2022-11-15T14:36:43;6.22;;;1.40;;
61391;SDS011;47261;52.892;5.738;2022-11-15T14:39:09;2.67;;;0.63;;
61391;SDS011;47261;52.892;5.738;2022-11-15T14:41:35;8.47;;;1.10;;
61391;SDS011;47261;52.892;5.738;2022-11-15T14:44:04;4.70;;;1.13;;
61391;SDS011;47261;52.892;5.738;2022-11-15T14:46:31;2.75;;;0.77;;
61391;SDS011;47261;52.892;5.738;2022-11-15T14:48:57;3.70;;;0.73;;
61391;SDS011;47261;52.892;5.738;2022-11-15T14:51:23;5.13;;;0.90;;
61391;SDS011;47261;52.892;5.738;2022-11-15T14:53:49;3.38;;;1.00;;
61391;SDS011;47261;52.892;5.738;2022-11-15T14:56:14;3.63;;;0.97;;
61391;SDS011;47261;52.892;5.738;2022-11-15T14:58:41;6.18;;;1.35;;
61391;SDS011;47261;52.892;5.738;2022-11-15T15:03:35;3.97;;;0.95;;
61391;SDS011;47261;52.892;5.738;2022-11-15T15:06:01;4.30;;;1.10;;
61391;SDS011;47261;52.892;5.738;2022-11-15T15:08:27;2.40;;;0.80;;
61391;SDS011;47261;52.892;5.738;2022-11-15T15:10:52;4.67;;;0.93;;
61391;SDS011;47261;52.892;5.738;2022-11-15T15:13:20;3.63;;;0.90;;
61391;SDS011;47261;52.892;5.738;2022-11-15T15:15:47;3.88;;;0.70;;
61391;SDS011;47261;52.892;5.738;2022-11-15T15:18:14;4.90;;;0.90;;
61391;SDS011;47261;52.892;5.738;2022-11-15T15:20:41;3.78;;;0.70;;
61391;SDS011;47261;52.892;5.738;2022-11-15T15:23:12;4.30;;;0.93;;
61391;SDS011;47261;52.892;5.738;2022-11-15T15:25:43;5.07;;;0.80;;
61391;SDS011;47261;52.892;5.738;2022-11-15T15:28:10;6.75;;;0.90;;
61391;SDS011;47261;52.892;5.738;2022-11-15T15:30:36;5.80;;;1.00;;
61391;SDS011;47261;52.892;5.738;2022-11-15T15:33:02;5.60;;;0.80;;
61391;SDS011;47261;52.892;5.738;2022-11-15T15:35:29;4.60;;;0.98;;
61391;SDS011;47261;52.892;5.738;2022-11-15T15:37:56;3.17;;;0.60;;
61391;SDS011;47261;52.892;5.738;2022-11-15T15:40:23;3.93;;;0.87;;
61391;SDS011;47261;52.892;5.738;2022-11-15T15:42:49;5.50;;;0.75;;
61391;SDS011;47261;52.892;5.738;2022-11-15T15:45:16;4.47;;;0.70;;
61391;SDS011;47261;52.892;5.738;2022-11-15T15:47:43;4.88;;;0.90;;
61391;SDS011;47261;52.892;5.738;2022-11-15T15:50:23;5.00;;;0.60;;
61391;SDS011;47261;52.892;5.738;2022-11-15T15:52:49;3.88;;;0.80;;
61391;SDS011;47261;52.892;5.738;2022-11-15T15:55:16;5.28;;;1.00;;
61391;SDS011;47261;52.892;5.738;2022-11-15T15:57:42;2.85;;;0.90;;
61391;SDS011;47261;52.892;5.738;2022-11-15T16:00:08;4.80;;;1.00;;
61391;SDS011;47261;52.892;5.738;2022-11-15T16:02:35;3.78;;;0.82;;
61391;SDS011;47261;52.892;5.738;2022-11-15T16:05:00;5.05;;;1.45;;
61391;SDS011;47261;52.892;5.738;2022-11-15T16:07:26;6.23;;;1.50;;
61391;SDS011;47261;52.892;5.738;2022-11-15T16:09:54;7.22;;;1.67;;
61391;SDS011;47261;52.892;5.738;2022-11-15T16:12:29;5.90;;;1.13;;
61391;SDS011;47261;52.892;5.738;2022-11-15T16:14:56;5.07;;;1.15;;
61391;SDS011;47261;52.892;5.738;2022-11-15T16:17:23;7.75;;;1.60;;
61391;SDS011;47261;52.892;5.738;2022-11-15T16:20:00;6.00;;;1.23;;
61391;SDS011;47261;52.892;5.738;2022-11-15T16:22:25;5.27;;;1.20;;
61391;SDS011;47261;52.892;5.738;2022-11-15T16:24:51;7.28;;;1.38;;
61391;SDS011;47261;52.892;5.738;2022-11-15T16:27:18;4.87;;;1.30;;
61391;SDS011;47261;52.892;5.738;2022-11-15T16:29:45;5.80;;;1.60;;
61391;SDS011;47261;52.892;5.738;2022-11-15T16:32:11;6.03;;;1.23;;
61391;SDS011;47261;52.892;5.738;2022-11-15T16:34:37;5.80;;;1.40;;
61391;SDS011;47261;52.892;5.738;2022-11-15T16:37:03;3.92;;;1.33;;
61391;SDS011;47261;52.892;5.738;2022-11-15T16:39:28;4.80;;;1.40;;
61391;SDS011;47261;52.892;5.738;2022-11-15T16:41:58;8.07;;;1.90;;
61391;SDS011;47261;52.892;5.738;2022-11-15T16:44:24;3.87;;;1.00;;
61391;SDS011;47261;52.892;5.738;2022-11-15T16:46:50;5.88;;;1.42;;
61391;SDS011;47261;52.892;5.738;2022-11-15T16:49:16;9.60;;;1.73;;
61391;SDS011;47261;52.892;5.738;2022-11-15T16:51:46;5.25;;;1.52;;
61391;SDS011;47261;52.892;5.738;2022-11-15T16:54:13;3.78;;;1.00;;
61391;SDS011;47261;52.892;5.738;2022-11-15T16:56:39;5.30;;;1.40;;
61391;SDS011;47261;52.892;5.738;2022-11-15T16:59:05;4.47;;;0.98;;
61391;SDS011;47261;52.892;5.738;2022-11-15T17:01:35;3.67;;;0.80;;
61391;SDS011;47261;52.892;5.738;2022-11-15T17:04:14;6.72;;;0.85;;